sensor_id;sensor_type;location;lat;lon;timestamp;temperature;humidity
4433;DHT22;2229;48.708;9.706;2023-04-24T04:35:57;11.10;99.90
4433;DHT22;2229;48.708;9.706;2023-04-24T04:38:27;11.10;99.90
4433;DHT22;2229;48.708;9.706;2023-04-24T04:41:09;11.10;99.90
4433;DHT22;2229;48.708;9.706;2023-04-24T04:43:37;11.10;99.90
4433;DHT22;2229;48.708;9.706;2023-04-24T04:46:06;11.10;99.90
4433;DHT22;2229;48.708;9.706;2023-04-24T04:49:03;11.10;99.90
4433;DHT22;2229;48.708;9.706;2023-04-24T04:51:33;11.10;99.90
4433;DHT22;2229;48.708;9.706;2023-04-24T04:54:01;11.10;99.90
4433;DHT22;2229;48.708;9.706;2023-04-24T04:56:28;11.10;99.90
4433;DHT22;2229;48.708;9.706;2023-04-24T04:58:59;11.20;99.90
4433;DHT22;2229;48.708;9.706;2023-04-24T05:01:26;11.20;99.90
4433;DHT22;2229;48.708;9.706;2023-04-24T05:03:55;11.20;99.90
4433;DHT22;2229;48.708;9.706;2023-04-24T05:06:23;11.30;99.90
4433;DHT22;2229;48.708;9.706;2023-04-24T05:08:52;11.30;99.90
4433;DHT22;2229;48.708;9.706;2023-04-24T05:11:32;11.20;99.90
4433;DHT22;2229;48.708;9.706;2023-04-24T05:14:01;11.30;99.90
4433;DHT22;2229;48.708;9.706;2023-04-24T05:16:34;11.40;99.90
4433;DHT22;2229;48.708;9.706;2023-04-24T05:19:03;11.50;99.90
4433;DHT22;2229;48.708;9.706;2023-04-24T05:21:35;11.50;99.90
4433;DHT22;2229;48.708;9.706;2023-04-24T05:24:04;11.50;99.90
4433;DHT22;2229;48.708;9.706;2023-04-24T05:26:43;11.30;99.90
4433;DHT22;2229;48.708;9.706;2023-04-24T05:29:12;11.10;99.90
4433;DHT22;2229;48.708;9.706;2023-04-24T05:31:39;10.90;99.90
4433;DHT22;2229;48.708;9.706;2023-04-24T05:34:06;10.80;99.90
4433;DHT22;2229;48.708;9.706;2023-04-24T05:36:34;10.70;99.90
4433;DHT22;2229;48.708;9.706;2023-04-24T05:39:01;10.80;99.90
4433;DHT22;2229;48.708;9.706;2023-04-24T05:41:32;10.80;99.90
4433;DHT22;2229;48.708;9.706;2023-04-24T05:43:59;10.70;99.90
4433;DHT22;2229;48.708;9.706;2023-04-24T05:46:27;10.60;99.90
4433;DHT22;2229;48.708;9.706;2023-04-24T05:48:55;10.60;99.90
4433;DHT22;2229;48.708;9.706;2023-04-24T05:51:23;10.40;99.90
4433;DHT22;2229;48.708;9.706;2023-04-24T05:53:51;10.30;99.90
4433;DHT22;2229;48.708;9.706;2023-04-24T05:56:19;10.20;99.90
4433;DHT22;2229;48.708;9.706;2023-04-24T05:58:50;10.20;99.90
4433;DHT22;2229;48.708;9.706;2023-04-24T06:01:18;10.10;99.90
4433;DHT22;2229;48.708;9.706;2023-04-24T06:03:52;10.10;99.90
4433;DHT22;2229;48.708;9.706;2023-04-24T06:06:20;10.00;99.90
4433;DHT22;2229;48.708;9.706;2023-04-24T06:08:47;10.10;99.90
4433;DHT22;2229;48.708;9.706;2023-04-24T06:11:14;10.10;99.90
4433;DHT22;2229;48.708;9.706;2023-04-24T06:13:42;10.20;99.90
4433;DHT22;2229;48.708;9.706;2023-04-24T06:16:43;10.20;99.90
4433;DHT22;2229;48.708;9.706;2023-04-24T06:19:21;10.30;99.90
4433;DHT22;2229;48.708;9.706;2023-04-24T06:21:48;10.30;99.90
4433;DHT22;2229;48.708;9.706;2023-04-24T06:24:15;10.40;99.90
4433;DHT22;2229;48.708;9.706;2023-04-24T06:26:43;10.50;99.90
4433;DHT22;2229;48.708;9.706;2023-04-24T06:29:10;10.50;99.90
4433;DHT22;2229;48.708;9.706;2023-04-24T06:31:38;10.60;99.90
4433;DHT22;2229;48.708;9.706;2023-04-24T06:34:07;10.60;99.90
4433;DHT22;2229;48.708;9.706;2023-04-24T06:36:34;10.50;99.90
4433;DHT22;2229;48.708;9.706;2023-04-24T06:39:02;10.60;99.90
4433;DHT22;2229;48.708;9.706;2023-04-24T06:41:29;10.70;99.90
4433;DHT22;2229;48.708;9.706;2023-04-24T06:43:56;10.70;99.90
4433;DHT22;2229;48.708;9.706;2023-04-24T06:46:23;10.70;99.90
4433;DHT22;2229;48.708;9.706;2023-04-24T06:48:52;10.80;99.90
4433;DHT22;2229;48.708;9.706;2023-04-24T06:51:25;10.90;99.90
4433;DHT22;2229;48.708;9.706;2023-04-24T06:53:53;11.10;99.90
4433;DHT22;2229;48.708;9.706;2023-04-24T06:56:22;11.20;99.90
4433;DHT22;2229;48.708;9.706;2023-04-24T06:58:49;11.30;99.90
4433;DHT22;2229;48.708;9.706;2023-04-24T07:01:17;11.40;99.90
4433;DHT22;2229;48.708;9.706;2023-04-24T07:03:44;11.60;99.90
4433;DHT22;2229;48.708;9.706;2023-04-24T07:06:11;11.80;99.90
4433;DHT22;2229;48.708;9.706;2023-04-24T07:08:40;12.10;99.90
4433;DHT22;2229;48.708;9.706;2023-04-24T07:11:09;12.30;99.90
4433;DHT22;2229;48.708;9.706;2023-04-24T07:13:36;12.40;99.90
4433;DHT22;2229;48.708;9.706;2023-04-24T07:16:07;12.50;99.90
4433;DHT22;2229;48.708;9.706;2023-04-24T07:18:35;12.50;99.90
4433;DHT22;2229;48.708;9.706;2023-04-24T07:21:03;12.60;99.90
4433;DHT22;2229;48.708;9.706;2023-04-24T07:23:30;12.80;99.90
4433;DHT22;2229;48.708;9.706;2023-04-24T07:25:59;13.00;99.90
4433;DHT22;2229;48.708;9.706;2023-04-24T07:28:26;13.20;99.90
4433;DHT22;2229;48.708;9.706;2023-04-24T07:30:56;13.40;99.90
4433;DHT22;2229;48.708;9.706;2023-04-24T07:33:25;13.60;99.90
4433;DHT22;2229;48.708;9.706;2023-04-24T07:35:53;13.80;99.90
4433;DHT22;2229;48.708;9.706;2023-04-24T07:38:21;14.00;99.90
4433;DHT22;2229;48.708;9.706;2023-04-24T07:40:49;14.30;99.90
4433;DHT22;2229;48.708;9.706;2023-04-24T07:43:19;14.30;99.90
4433;DHT22;2229;48.708;9.706;2023-04-24T07:45:46;14.20;99.90
4433;DHT22;2229;48.708;9.706;2023-04-24T07:48:14;14.20;99.90
4433;DHT22;2229;48.708;9.706;2023-04-24T07:50:42;14.00;99.90
4433;DHT22;2229;48.708;9.706;2023-04-24T07:53:09;13.90;99.90
4433;DHT22;2229;48.708;9.706;2023-04-24T07:55:37;13.70;99.90
4433;DHT22;2229;48.708;9.706;2023-04-24T07:58:05;13.60;99.90
4433;DHT22;2229;48.708;9.706;2023-04-24T08:00:34;13.40;99.90
4433;DHT22;2229;48.708;9.706;2023-04-24T08:03:01;13.20;99.50
4433;DHT22;2229;48.708;9.706;2023-04-24T08:05:29;13.00;99.60
4433;DHT22;2229;48.708;9.706;2023-04-24T08:07:56;12.70;99.80
4433;DHT22;2229;48.708;9.706;2023-04-24T08:10:23;12.50;99.90
4433;DHT22;2229;48.708;9.706;2023-04-24T08:12:51;12.30;99.90
4433;DHT22;2229;48.708;9.706;2023-04-24T08:15:18;12.10;99.90
4433;DHT22;2229;48.708;9.706;2023-04-24T08:17:47;11.80;99.90
4433;DHT22;2229;48.708;9.706;2023-04-24T08:20:14;11.50;99.90
4433;DHT22;2229;48.708;9.706;2023-04-24T08:22:42;11.30;99.90
4433;DHT22;2229;48.708;9.706;2023-04-24T08:25:10;11.10;99.90
4433;DHT22;2229;48.708;9.706;2023-04-24T08:27:37;11.00;99.90
4433;DHT22;2229;48.708;9.706;2023-04-24T08:30:05;11.00;99.90
4433;DHT22;2229;48.708;9.706;2023-04-24T08:32:33;11.50;99.90
4433;DHT22;2229;48.708;9.706;2023-04-24T08:35:01;12.30;99.90
4433;DHT22;2229;48.708;9.706;2023-04-24T08:37:29;12.80;99.90
4433;DHT22;2229;48.708;9.706;2023-04-24T08:39:57;13.00;99.90
4433;DHT22;2229;48.708;9.706;2023-04-24T08:42:26;13.60;99.90
4433;DHT22;2229;48.708;9.706;2023-04-24T08:44:55;14.00;99.90
4433;DHT22;2229;48.708;9.706;2023-04-24T08:47:23;14.50;98.80
4433;DHT22;2229;48.708;9.706;2023-04-24T08:49:51;14.50;96.60
4433;DHT22;2229;48.708;9.706;2023-04-24T08:52:20;14.20;96.00
4433;DHT22;2229;48.708;9.706;2023-04-24T08:54:48;13.80;95.50
4433;DHT22;2229;48.708;9.706;2023-04-24T08:57:15;13.40;95.70
4433;DHT22;2229;48.708;9.706;2023-04-24T08:59:43;13.10;95.90
4433;DHT22;2229;48.708;9.706;2023-04-24T09:02:13;12.80;96.10
4433;DHT22;2229;48.708;9.706;2023-04-24T09:04:41;12.70;96.40
4433;DHT22;2229;48.708;9.706;2023-04-24T09:07:10;12.50;96.50
4433;DHT22;2229;48.708;9.706;2023-04-24T09:09:40;12.40;96.60
4433;DHT22;2229;48.708;9.706;2023-04-24T09:12:08;12.40;96.50
4433;DHT22;2229;48.708;9.706;2023-04-24T09:14:36;12.60;97.70
4433;DHT22;2229;48.708;9.706;2023-04-24T09:17:08;13.60;98.70
4433;DHT22;2229;48.708;9.706;2023-04-24T09:19:35;14.90;96.10
4433;DHT22;2229;48.708;9.706;2023-04-24T09:22:05;15.80;92.40
4433;DHT22;2229;48.708;9.706;2023-04-24T09:24:34;16.40;90.40
4433;DHT22;2229;48.708;9.706;2023-04-24T09:27:03;17.20;90.40
4433;DHT22;2229;48.708;9.706;2023-04-24T09:29:31;18.30;84.80
4433;DHT22;2229;48.708;9.706;2023-04-24T09:31:59;19.10;80.70
4433;DHT22;2229;48.708;9.706;2023-04-24T09:34:26;19.80;75.10
4433;DHT22;2229;48.708;9.706;2023-04-24T09:36:54;20.20;73.40
4433;DHT22;2229;48.708;9.706;2023-04-24T09:39:21;20.20;70.70
4433;DHT22;2229;48.708;9.706;2023-04-24T09:41:50;19.70;67.50
4433;DHT22;2229;48.708;9.706;2023-04-24T09:44:20;19.20;67.20
4433;DHT22;2229;48.708;9.706;2023-04-24T09:46:50;18.70;69.00
4433;DHT22;2229;48.708;9.706;2023-04-24T09:49:22;17.80;67.60
4433;DHT22;2229;48.708;9.706;2023-04-24T09:51:51;16.70;69.10
4433;DHT22;2229;48.708;9.706;2023-04-24T09:54:19;15.90;70.00
4433;DHT22;2229;48.708;9.706;2023-04-24T09:56:48;15.20;72.10
4433;DHT22;2229;48.708;9.706;2023-04-24T09:59:19;14.80;74.00
4433;DHT22;2229;48.708;9.706;2023-04-24T10:01:46;15.00;75.60
4433;DHT22;2229;48.708;9.706;2023-04-24T10:04:16;15.10;73.60
4433;DHT22;2229;48.708;9.706;2023-04-24T10:06:44;15.30;73.50
4433;DHT22;2229;48.708;9.706;2023-04-24T10:09:12;15.20;71.20
4433;DHT22;2229;48.708;9.706;2023-04-24T10:11:42;15.30;72.40
4433;DHT22;2229;48.708;9.706;2023-04-24T10:14:12;15.80;72.90
4433;DHT22;2229;48.708;9.706;2023-04-24T10:16:41;16.60;72.10
4433;DHT22;2229;48.708;9.706;2023-04-24T10:19:09;17.30;70.30
4433;DHT22;2229;48.708;9.706;2023-04-24T10:21:40;17.60;65.70
4433;DHT22;2229;48.708;9.706;2023-04-24T10:24:12;17.40;64.50
4433;DHT22;2229;48.708;9.706;2023-04-24T10:26:40;16.90;64.00
4433;DHT22;2229;48.708;9.706;2023-04-24T10:29:08;16.20;63.70
4433;DHT22;2229;48.708;9.706;2023-04-24T10:31:37;15.50;65.10
4433;DHT22;2229;48.708;9.706;2023-04-24T10:34:07;15.10;66.00
4433;DHT22;2229;48.708;9.706;2023-04-24T10:36:36;15.30;66.10
4433;DHT22;2229;48.708;9.706;2023-04-24T10:39:08;15.70;66.90
4433;DHT22;2229;48.708;9.706;2023-04-24T10:41:37;15.90;62.30
4433;DHT22;2229;48.708;9.706;2023-04-24T10:44:05;16.00;61.60
4433;DHT22;2229;48.708;9.706;2023-04-24T10:46:33;16.20;65.40
4433;DHT22;2229;48.708;9.706;2023-04-24T10:49:04;16.30;63.90
4433;DHT22;2229;48.708;9.706;2023-04-24T10:51:47;15.90;62.00
4433;DHT22;2229;48.708;9.706;2023-04-24T10:54:26;15.40;62.50
4433;DHT22;2229;48.708;9.706;2023-04-24T10:57:25;14.80;62.10
4433;DHT22;2229;48.708;9.706;2023-04-24T11:00:10;14.40;62.70
4433;DHT22;2229;48.708;9.706;2023-04-24T11:02:40;14.60;67.00
4433;DHT22;2229;48.708;9.706;2023-04-24T11:05:15;15.10;66.30
4433;DHT22;2229;48.708;9.706;2023-04-24T11:08:12;15.80;64.60
4433;DHT22;2229;48.708;9.706;2023-04-24T11:10:41;16.50;60.00
4433;DHT22;2229;48.708;9.706;2023-04-24T11:13:10;17.00;60.20
4433;DHT22;2229;48.708;9.706;2023-04-24T11:15:37;17.50;58.90
4433;DHT22;2229;48.708;9.706;2023-04-24T11:18:12;17.90;58.20
4433;DHT22;2229;48.708;9.706;2023-04-24T11:20:42;18.30;57.60
4433;DHT22;2229;48.708;9.706;2023-04-24T11:23:13;18.40;55.80
4433;DHT22;2229;48.708;9.706;2023-04-24T11:25:42;17.80;55.70
4433;DHT22;2229;48.708;9.706;2023-04-24T11:28:14;17.10;57.00
4433;DHT22;2229;48.708;9.706;2023-04-24T11:30:43;16.60;59.00
4433;DHT22;2229;48.708;9.706;2023-04-24T11:33:10;16.20;58.70
4433;DHT22;2229;48.708;9.706;2023-04-24T11:35:40;15.80;60.00
4433;DHT22;2229;48.708;9.706;2023-04-24T11:38:07;15.70;60.70
4433;DHT22;2229;48.708;9.706;2023-04-24T11:40:38;15.50;66.30
4433;DHT22;2229;48.708;9.706;2023-04-24T11:43:06;15.60;65.40
4433;DHT22;2229;48.708;9.706;2023-04-24T11:45:33;15.40;62.70
4433;DHT22;2229;48.708;9.706;2023-04-24T11:48:02;15.30;62.30
4433;DHT22;2229;48.708;9.706;2023-04-24T11:50:30;15.00;62.30
4433;DHT22;2229;48.708;9.706;2023-04-24T11:52:58;14.60;62.50
4433;DHT22;2229;48.708;9.706;2023-04-24T11:55:28;14.30;63.00
4433;DHT22;2229;48.708;9.706;2023-04-24T11:57:57;14.00;64.10
4433;DHT22;2229;48.708;9.706;2023-04-24T12:00:27;13.80;65.40
4433;DHT22;2229;48.708;9.706;2023-04-24T12:03:05;13.60;65.60
4433;DHT22;2229;48.708;9.706;2023-04-24T12:05:33;13.40;66.00
4433;DHT22;2229;48.708;9.706;2023-04-24T12:08:00;13.20;66.00
4433;DHT22;2229;48.708;9.706;2023-04-24T12:10:29;13.00;67.60
4433;DHT22;2229;48.708;9.706;2023-04-24T12:12:58;12.90;68.50
4433;DHT22;2229;48.708;9.706;2023-04-24T12:15:27;12.90;69.10
4433;DHT22;2229;48.708;9.706;2023-04-24T12:17:55;12.80;69.20
4433;DHT22;2229;48.708;9.706;2023-04-24T12:20:27;12.80;70.00
4433;DHT22;2229;48.708;9.706;2023-04-24T12:22:57;12.80;70.50
4433;DHT22;2229;48.708;9.706;2023-04-24T12:25:25;12.90;70.60
4433;DHT22;2229;48.708;9.706;2023-04-24T12:27:54;13.00;70.90
4433;DHT22;2229;48.708;9.706;2023-04-24T12:30:27;13.10;69.90
4433;DHT22;2229;48.708;9.706;2023-04-24T12:32:58;13.20;71.40
4433;DHT22;2229;48.708;9.706;2023-04-24T12:35:28;13.20;71.20
4433;DHT22;2229;48.708;9.706;2023-04-24T12:37:55;13.10;71.10
4433;DHT22;2229;48.708;9.706;2023-04-24T12:40:25;13.00;71.20
4433;DHT22;2229;48.708;9.706;2023-04-24T12:42:54;13.00;71.70
4433;DHT22;2229;48.708;9.706;2023-04-24T12:45:23;12.90;71.70
4433;DHT22;2229;48.708;9.706;2023-04-24T12:47:51;12.90;72.30
4433;DHT22;2229;48.708;9.706;2023-04-24T12:50:18;12.90;72.40
4433;DHT22;2229;48.708;9.706;2023-04-24T12:52:45;13.00;72.30
4433;DHT22;2229;48.708;9.706;2023-04-24T12:55:12;13.10;72.00
4433;DHT22;2229;48.708;9.706;2023-04-24T12:57:40;13.20;72.30
4433;DHT22;2229;48.708;9.706;2023-04-24T13:00:09;13.30;71.50
4433;DHT22;2229;48.708;9.706;2023-04-24T13:02:37;13.40;71.10
4433;DHT22;2229;48.708;9.706;2023-04-24T13:05:06;13.50;69.50
4433;DHT22;2229;48.708;9.706;2023-04-24T13:07:33;13.60;69.60
4433;DHT22;2229;48.708;9.706;2023-04-24T13:10:00;13.60;70.20
4433;DHT22;2229;48.708;9.706;2023-04-24T13:12:28;13.70;70.50
4433;DHT22;2229;48.708;9.706;2023-04-24T13:14:55;13.50;69.60
4433;DHT22;2229;48.708;9.706;2023-04-24T13:17:23;13.30;69.20
4433;DHT22;2229;48.708;9.706;2023-04-24T13:19:54;13.20;69.50
4433;DHT22;2229;48.708;9.706;2023-04-24T13:22:21;13.10;70.90
4433;DHT22;2229;48.708;9.706;2023-04-24T13:24:48;13.10;71.50
4433;DHT22;2229;48.708;9.706;2023-04-24T13:27:16;13.10;70.50
4433;DHT22;2229;48.708;9.706;2023-04-24T13:29:43;13.00;70.90
4433;DHT22;2229;48.708;9.706;2023-04-24T13:32:10;13.00;72.30
4433;DHT22;2229;48.708;9.706;2023-04-24T13:34:38;13.10;72.50
4433;DHT22;2229;48.708;9.706;2023-04-24T13:37:06;13.10;72.40
4433;DHT22;2229;48.708;9.706;2023-04-24T13:39:34;13.10;71.30
4433;DHT22;2229;48.708;9.706;2023-04-24T13:42:02;13.10;70.10
4433;DHT22;2229;48.708;9.706;2023-04-24T13:44:29;13.10;70.40
4433;DHT22;2229;48.708;9.706;2023-04-24T13:46:57;13.10;71.50
4433;DHT22;2229;48.708;9.706;2023-04-24T13:49:25;13.10;71.60
4433;DHT22;2229;48.708;9.706;2023-04-24T13:51:53;13.00;71.20
4433;DHT22;2229;48.708;9.706;2023-04-24T13:54:22;13.00;71.40
4433;DHT22;2229;48.708;9.706;2023-04-24T13:56:51;13.00;72.40
4433;DHT22;2229;48.708;9.706;2023-04-24T13:59:20;13.10;74.10
4433;DHT22;2229;48.708;9.706;2023-04-24T14:01:47;13.20;73.10
4433;DHT22;2229;48.708;9.706;2023-04-24T14:04:15;13.20;72.40
4433;DHT22;2229;48.708;9.706;2023-04-24T14:06:42;13.20;72.80
4433;DHT22;2229;48.708;9.706;2023-04-24T14:09:09;13.20;73.80
4433;DHT22;2229;48.708;9.706;2023-04-24T14:11:37;13.10;73.20
4433;DHT22;2229;48.708;9.706;2023-04-24T14:14:05;13.10;72.30
4433;DHT22;2229;48.708;9.706;2023-04-24T14:16:33;13.10;73.50
4433;DHT22;2229;48.708;9.706;2023-04-24T14:19:01;13.10;72.90
4433;DHT22;2229;48.708;9.706;2023-04-24T14:21:28;13.10;73.00
4433;DHT22;2229;48.708;9.706;2023-04-24T14:23:55;13.20;72.50
4433;DHT22;2229;48.708;9.706;2023-04-24T14:26:23;13.10;72.90
4433;DHT22;2229;48.708;9.706;2023-04-24T14:28:52;13.00;73.10
4433;DHT22;2229;48.708;9.706;2023-04-24T14:31:21;12.90;74.30
4433;DHT22;2229;48.708;9.706;2023-04-24T14:33:48;12.80;72.60
4433;DHT22;2229;48.708;9.706;2023-04-24T14:36:15;12.60;71.10
4433;DHT22;2229;48.708;9.706;2023-04-24T14:38:42;12.50;71.20
4433;DHT22;2229;48.708;9.706;2023-04-24T14:41:09;12.30;70.90
4433;DHT22;2229;48.708;9.706;2023-04-24T14:43:37;12.20;71.20
4433;DHT22;2229;48.708;9.706;2023-04-24T14:46:07;12.10;72.00
4433;DHT22;2229;48.708;9.706;2023-04-24T14:48:34;12.00;73.50
4433;DHT22;2229;48.708;9.706;2023-04-24T14:51:01;11.90;73.90
4433;DHT22;2229;48.708;9.706;2023-04-24T14:53:28;11.90;75.10
4433;DHT22;2229;48.708;9.706;2023-04-24T14:55:57;12.00;76.40
4433;DHT22;2229;48.708;9.706;2023-04-24T14:58:24;12.10;76.70
4433;DHT22;2229;48.708;9.706;2023-04-24T15:00:52;12.30;77.10
4433;DHT22;2229;48.708;9.706;2023-04-24T15:03:21;12.60;77.00
4433;DHT22;2229;48.708;9.706;2023-04-24T15:05:49;12.80;76.30
4433;DHT22;2229;48.708;9.706;2023-04-24T15:08:17;12.90;76.20
4433;DHT22;2229;48.708;9.706;2023-04-24T15:10:44;13.00;76.50
4433;DHT22;2229;48.708;9.706;2023-04-24T15:13:11;13.00;75.80
4433;DHT22;2229;48.708;9.706;2023-04-24T15:15:38;12.90;75.00
4433;DHT22;2229;48.708;9.706;2023-04-24T15:18:07;12.80;75.10
4433;DHT22;2229;48.708;9.706;2023-04-24T15:20:38;12.60;75.50
4433;DHT22;2229;48.708;9.706;2023-04-24T15:23:08;12.50;75.80
4433;DHT22;2229;48.708;9.706;2023-04-24T15:25:36;12.30;76.90
4433;DHT22;2229;48.708;9.706;2023-04-24T15:28:04;12.20;77.80
4433;DHT22;2229;48.708;9.706;2023-04-24T15:30:31;12.20;78.20
4433;DHT22;2229;48.708;9.706;2023-04-24T15:32:59;12.30;79.60
4433;DHT22;2229;48.708;9.706;2023-04-24T15:35:26;12.50;80.00
4433;DHT22;2229;48.708;9.706;2023-04-24T15:37:55;12.70;79.70
4433;DHT22;2229;48.708;9.706;2023-04-24T15:40:22;13.00;78.70
4433;DHT22;2229;48.708;9.706;2023-04-24T15:42:50;13.10;78.00
4433;DHT22;2229;48.708;9.706;2023-04-24T15:45:17;13.20;78.30
4433;DHT22;2229;48.708;9.706;2023-04-24T16:27:35;12.30;78.70
4433;DHT22;2229;48.708;9.706;2023-04-24T16:44:05;12.10;78.60
4433;DHT22;2229;48.708;9.706;2023-04-24T16:46:34;12.20;78.30
4433;DHT22;2229;48.708;9.706;2023-04-24T16:49:01;12.30;77.40
4433;DHT22;2229;48.708;9.706;2023-04-24T16:51:29;12.40;76.70
4433;DHT22;2229;48.708;9.706;2023-04-24T16:53:56;12.50;75.40
4433;DHT22;2229;48.708;9.706;2023-04-24T16:56:23;12.50;75.40
4433;DHT22;2229;48.708;9.706;2023-04-24T16:58:51;12.60;75.60
4433;DHT22;2229;48.708;9.706;2023-04-24T17:01:20;12.60;75.50
4433;DHT22;2229;48.708;9.706;2023-04-24T17:03:47;12.60;76.10
4433;DHT22;2229;48.708;9.706;2023-04-24T17:06:14;12.60;75.70
4433;DHT22;2229;48.708;9.706;2023-04-24T17:08:42;12.60;75.60
4433;DHT22;2229;48.708;9.706;2023-04-24T17:11:09;12.50;75.80
4433;DHT22;2229;48.708;9.706;2023-04-24T17:13:36;12.40;75.90
4433;DHT22;2229;48.708;9.706;2023-04-24T17:16:04;12.30;76.40
4433;DHT22;2229;48.708;9.706;2023-04-24T17:18:33;12.20;76.50
4433;DHT22;2229;48.708;9.706;2023-04-24T17:21:00;12.10;76.90
4433;DHT22;2229;48.708;9.706;2023-04-24T17:23:28;12.00;77.30
4433;DHT22;2229;48.708;9.706;2023-04-24T17:25:56;11.70;77.00
4433;DHT22;2229;48.708;9.706;2023-04-24T17:28:25;11.70;77.40
4433;DHT22;2229;48.708;9.706;2023-04-24T17:30:53;11.60;78.40
4433;DHT22;2229;48.708;9.706;2023-04-24T17:33:22;11.50;78.50
4433;DHT22;2229;48.708;9.706;2023-04-24T17:35:51;11.40;79.00
4433;DHT22;2229;48.708;9.706;2023-04-24T17:38:18;11.40;79.50
4433;DHT22;2229;48.708;9.706;2023-04-24T17:40:46;11.30;79.70
4433;DHT22;2229;48.708;9.706;2023-04-24T17:43:18;11.30;80.20
4433;DHT22;2229;48.708;9.706;2023-04-24T17:45:47;11.30;80.90
4433;DHT22;2229;48.708;9.706;2023-04-24T17:48:15;11.30;81.40
4433;DHT22;2229;48.708;9.706;2023-04-24T17:50:42;11.30;81.70
4433;DHT22;2229;48.708;9.706;2023-04-24T17:53:12;11.40;81.80
4433;DHT22;2229;48.708;9.706;2023-04-24T17:55:39;11.30;81.70
4433;DHT22;2229;48.708;9.706;2023-04-24T17:58:08;11.30;81.70
4433;DHT22;2229;48.708;9.706;2023-04-24T18:00:36;11.30;82.10
4433;DHT22;2229;48.708;9.706;2023-04-24T18:03:04;11.30;82.20
4433;DHT22;2229;48.708;9.706;2023-04-24T18:05:34;11.30;82.20
4433;DHT22;2229;48.708;9.706;2023-04-24T18:08:02;11.30;82.30
4433;DHT22;2229;48.708;9.706;2023-04-24T18:10:32;11.30;82.30
4433;DHT22;2229;48.708;9.706;2023-04-24T18:13:01;11.20;82.30
4433;DHT22;2229;48.708;9.706;2023-04-24T18:15:29;11.20;82.50
4433;DHT22;2229;48.708;9.706;2023-04-24T18:17:57;11.10;82.40
4433;DHT22;2229;48.708;9.706;2023-04-24T18:20:24;11.10;82.50
4433;DHT22;2229;48.708;9.706;2023-04-24T18:22:51;11.00;82.60
4433;DHT22;2229;48.708;9.706;2023-04-24T18:25:19;11.00;83.00
4433;DHT22;2229;48.708;9.706;2023-04-24T18:27:53;10.90;83.40
4433;DHT22;2229;48.708;9.706;2023-04-24T18:30:21;10.80;83.60
4433;DHT22;2229;48.708;9.706;2023-04-24T18:32:49;10.80;83.90
4433;DHT22;2229;48.708;9.706;2023-04-24T18:35:17;10.80;84.20
4433;DHT22;2229;48.708;9.706;2023-04-24T18:37:45;10.80;84.50
4433;DHT22;2229;48.708;9.706;2023-04-24T18:40:12;10.70;84.50
4433;DHT22;2229;48.708;9.706;2023-04-24T18:42:40;10.70;84.60
4433;DHT22;2229;48.708;9.706;2023-04-24T18:45:10;10.70;84.80
4433;DHT22;2229;48.708;9.706;2023-04-24T18:47:38;10.60;84.90
4433;DHT22;2229;48.708;9.706;2023-04-24T18:50:06;10.60;85.10
4433;DHT22;2229;48.708;9.706;2023-04-24T18:52:33;10.60;85.20
4433;DHT22;2229;48.708;9.706;2023-04-24T18:55:01;10.50;85.30
4433;DHT22;2229;48.708;9.706;2023-04-24T18:57:32;10.50;85.40
4433;DHT22;2229;48.708;9.706;2023-04-24T18:59:59;10.60;85.60
4433;DHT22;2229;48.708;9.706;2023-04-24T19:02:28;10.60;86.40
4433;DHT22;2229;48.708;9.706;2023-04-24T19:04:55;10.60;85.90
4433;DHT22;2229;48.708;9.706;2023-04-24T19:07:22;10.60;86.30
4433;DHT22;2229;48.708;9.706;2023-04-24T19:09:49;10.60;86.50
4433;DHT22;2229;48.708;9.706;2023-04-24T19:12:16;10.60;86.70
4433;DHT22;2229;48.708;9.706;2023-04-24T19:14:48;10.60;86.90
4433;DHT22;2229;48.708;9.706;2023-04-24T19:17:16;10.60;87.30
4433;DHT22;2229;48.708;9.706;2023-04-24T19:19:50;10.60;87.60
4433;DHT22;2229;48.708;9.706;2023-04-24T19:22:17;11.00;88.30
4433;DHT22;2229;48.708;9.706;2023-04-24T19:24:44;10.60;87.90
4433;DHT22;2229;48.708;9.706;2023-04-24T19:27:12;10.60;88.00
4433;DHT22;2229;48.708;9.706;2023-04-24T19:29:39;10.50;88.00
4433;DHT22;2229;48.708;9.706;2023-04-24T19:32:07;10.60;88.10
4433;DHT22;2229;48.708;9.706;2023-04-24T19:34:34;10.60;88.20
4433;DHT22;2229;48.708;9.706;2023-04-24T19:37:03;10.60;88.20
4433;DHT22;2229;48.708;9.706;2023-04-24T19:39:31;10.60;88.60
4433;DHT22;2229;48.708;9.706;2023-04-24T19:41:58;10.60;88.70
4433;DHT22;2229;48.708;9.706;2023-04-24T19:44:27;10.00;88.30
4433;DHT22;2229;48.708;9.706;2023-04-24T19:46:54;10.70;89.30
4433;DHT22;2229;48.708;9.706;2023-04-24T19:49:22;10.70;89.50
4433;DHT22;2229;48.708;9.706;2023-04-24T19:51:49;10.70;89.70
4433;DHT22;2229;48.708;9.706;2023-04-24T19:54:17;10.60;89.80
4433;DHT22;2229;48.708;9.706;2023-04-24T19:56:45;10.60;89.90
4433;DHT22;2229;48.708;9.706;2023-04-24T19:59:12;10.50;88.40
4433;DHT22;2229;48.708;9.706;2023-04-24T20:01:40;10.50;88.00
4433;DHT22;2229;48.708;9.706;2023-04-24T20:04:08;10.50;87.90
4433;DHT22;2229;48.708;9.706;2023-04-24T20:06:36;10.40;87.80
4433;DHT22;2229;48.708;9.706;2023-04-24T20:09:03;10.30;87.30
4433;DHT22;2229;48.708;9.706;2023-04-24T20:11:33;10.30;86.80
4433;DHT22;2229;48.708;9.706;2023-04-24T20:14:00;10.20;86.40
4433;DHT22;2229;48.708;9.706;2023-04-24T20:16:28;10.10;86.60
4433;DHT22;2229;48.708;9.706;2023-04-24T20:18:56;10.10;86.60
4433;DHT22;2229;48.708;9.706;2023-04-24T20:21:25;10.10;86.50
4433;DHT22;2229;48.708;9.706;2023-04-24T20:23:52;10.10;86.50
4433;DHT22;2229;48.708;9.706;2023-04-24T20:26:20;10.10;86.60
4433;DHT22;2229;48.708;9.706;2023-04-24T20:28:48;10.10;86.50
4433;DHT22;2229;48.708;9.706;2023-04-24T20:31:16;10.10;86.60
4433;DHT22;2229;48.708;9.706;2023-04-24T20:33:44;10.10;87.00
4433;DHT22;2229;48.708;9.706;2023-04-24T20:36:12;10.10;87.10
4433;DHT22;2229;48.708;9.706;2023-04-24T20:38:40;10.10;87.30
4433;DHT22;2229;48.708;9.706;2023-04-24T20:41:08;10.10;87.60
4433;DHT22;2229;48.708;9.706;2023-04-24T20:43:36;10.20;88.20
4433;DHT22;2229;48.708;9.706;2023-04-24T20:46:05;10.10;88.30
4433;DHT22;2229;48.708;9.706;2023-04-24T20:48:32;10.10;88.60
4433;DHT22;2229;48.708;9.706;2023-04-24T20:50:59;10.10;88.80
4433;DHT22;2229;48.708;9.706;2023-04-24T20:53:26;10.10;88.90
4433;DHT22;2229;48.708;9.706;2023-04-24T20:55:54;10.00;88.90
4433;DHT22;2229;48.708;9.706;2023-04-24T20:58:21;10.00;89.10
4433;DHT22;2229;48.708;9.706;2023-04-24T21:00:48;10.00;89.20
4433;DHT22;2229;48.708;9.706;2023-04-24T21:03:18;10.00;89.30
4433;DHT22;2229;48.708;9.706;2023-04-24T21:05:45;10.00;89.40
4433;DHT22;2229;48.708;9.706;2023-04-24T21:08:12;9.90;90.30
4433;DHT22;2229;48.708;9.706;2023-04-24T21:10:39;9.90;90.30
4433;DHT22;2229;48.708;9.706;2023-04-24T21:13:07;9.90;90.40
4433;DHT22;2229;48.708;9.706;2023-04-24T21:15:34;9.90;90.50
4433;DHT22;2229;48.708;9.706;2023-04-24T21:18:01;9.90;90.50
4433;DHT22;2229;48.708;9.706;2023-04-24T21:20:31;9.90;90.60
4433;DHT22;2229;48.708;9.706;2023-04-24T21:22:58;9.90;90.70
4433;DHT22;2229;48.708;9.706;2023-04-24T21:25:25;9.90;90.80
4433;DHT22;2229;48.708;9.706;2023-04-24T21:27:52;9.90;90.90
4433;DHT22;2229;48.708;9.706;2023-04-24T21:30:20;9.90;91.00
4433;DHT22;2229;48.708;9.706;2023-04-24T21:32:47;9.90;91.20
4433;DHT22;2229;48.708;9.706;2023-04-24T21:35:16;9.90;91.20
4433;DHT22;2229;48.708;9.706;2023-04-24T21:37:45;10.00;90.80
4433;DHT22;2229;48.708;9.706;2023-04-24T21:40:13;10.00;90.80